Marianna, Pennsylvania
Current Conditions -  °F | °C
As of 5:35 AM on Wednesday 22 Oct 2014 (Local Time) from KAFJ Reporting Station
Overcast Overcast  
Wind Chill: 42°   Ceiling: 1200
Heat Index: 46°   Visibility: 10mi
Dew Point: 43°   Wind: 9mph
Humidity: 87%   Direction: 330°NNW
Pressure: 30.09"   Gusts: NA
Location:  40.02°N, 80.1°W
Report Text: KAFJ 220935Z AUTO 33008KT 10SM OVC012 08/06 A3009 RMK AO1
Loading
Personal Weather Stations






























Interactive Weather Map
Tropical Storm Tracking
New forecast layout! Learn more

10-Day Weather Forecast

Advertisements
Track Severe Weather on mobile